sensor_id;sensor_type;location;lat;lon;timestamp;P1;durP1;ratioP1;P2;durP2;ratioP2
485;SDS011;229;48.734;9.340;2023-07-29T00:00:48;3.80;;;1.97;;
485;SDS011;229;48.734;9.340;2023-07-29T00:03:15;6.77;;;2.37;;
485;SDS011;229;48.734;9.340;2023-07-29T00:05:42;7.13;;;2.80;;
485;SDS011;229;48.734;9.340;2023-07-29T00:08:10;7.13;;;2.77;;
485;SDS011;229;48.734;9.340;2023-07-29T00:10:40;3.87;;;2.13;;
485;SDS011;229;48.734;9.340;2023-07-29T00:13:07;3.73;;;2.17;;
485;SDS011;229;48.734;9.340;2023-07-29T00:15:35;3.37;;;1.90;;
485;SDS011;229;48.734;9.340;2023-07-29T00:18:03;4.70;;;2.07;;
485;SDS011;229;48.734;9.340;2023-07-29T00:20:30;12.00;;;2.13;;
485;SDS011;229;48.734;9.340;2023-07-29T00:22:57;3.10;;;2.00;;
485;SDS011;229;48.734;9.340;2023-07-29T00:25:26;3.87;;;2.13;;
485;SDS011;229;48.734;9.340;2023-07-29T00:27:54;2.50;;;1.73;;
485;SDS011;229;48.734;9.340;2023-07-29T00:30:21;7.43;;;2.40;;
485;SDS011;229;48.734;9.340;2023-07-29T00:32:48;5.53;;;2.00;;
485;SDS011;229;48.734;9.340;2023-07-29T00:35:17;5.10;;;2.17;;
485;SDS011;229;48.734;9.340;2023-07-29T00:37:44;2.70;;;1.83;;
485;SDS011;229;48.734;9.340;2023-07-29T00:40:13;3.20;;;2.20;;
485;SDS011;229;48.734;9.340;2023-07-29T00:42:41;4.57;;;2.10;;
485;SDS011;229;48.734;9.340;2023-07-29T00:45:09;4.03;;;2.00;;
485;SDS011;229;48.734;9.340;2023-07-29T00:47:36;3.27;;;2.10;;
485;SDS011;229;48.734;9.340;2023-07-29T00:50:03;9.13;;;2.20;;
485;SDS011;229;48.734;9.340;2023-07-29T00:52:32;7.87;;;1.80;;
485;SDS011;229;48.734;9.340;2023-07-29T00:55:00;4.67;;;2.33;;
485;SDS011;229;48.734;9.340;2023-07-29T00:57:27;3.57;;;2.10;;
485;SDS011;229;48.734;9.340;2023-07-29T00:59:55;5.80;;;2.90;;
485;SDS011;229;48.734;9.340;2023-07-29T01:02:23;2.80;;;1.83;;
485;SDS011;229;48.734;9.340;2023-07-29T01:04:51;4.73;;;1.90;;
485;SDS011;229;48.734;9.340;2023-07-29T01:07:20;4.13;;;2.60;;
485;SDS011;229;48.734;9.340;2023-07-29T01:09:50;6.47;;;2.00;;
485;SDS011;229;48.734;9.340;2023-07-29T01:12:24;5.70;;;2.37;;
485;SDS011;229;48.734;9.340;2023-07-29T01:14:55;6.43;;;2.53;;
485;SDS011;229;48.734;9.340;2023-07-29T01:17:25;7.53;;;2.78;;
485;SDS011;229;48.734;9.340;2023-07-29T01:20:00;5.40;;;2.70;;
485;SDS011;229;48.734;9.340;2023-07-29T01:22:28;4.63;;;3.03;;
485;SDS011;229;48.734;9.340;2023-07-29T01:24:58;10.30;;;2.30;;
485;SDS011;229;48.734;9.340;2023-07-29T01:27:26;5.97;;;3.00;;
485;SDS011;229;48.734;9.340;2023-07-29T01:29:53;10.43;;;3.40;;
485;SDS011;229;48.734;9.340;2023-07-29T01:32:22;8.03;;;2.43;;
485;SDS011;229;48.734;9.340;2023-07-29T01:34:53;4.33;;;2.53;;
485;SDS011;229;48.734;9.340;2023-07-29T01:37:25;5.20;;;2.80;;
485;SDS011;229;48.734;9.340;2023-07-29T01:39:52;5.73;;;3.40;;
485;SDS011;229;48.734;9.340;2023-07-29T01:42:23;4.87;;;2.60;;
485;SDS011;229;48.734;9.340;2023-07-29T01:44:51;7.93;;;2.13;;
485;SDS011;229;48.734;9.340;2023-07-29T01:47:18;4.70;;;2.40;;
485;SDS011;229;48.734;9.340;2023-07-29T01:49:47;4.50;;;2.30;;
485;SDS011;229;48.734;9.340;2023-07-29T01:52:15;5.33;;;2.33;;
485;SDS011;229;48.734;9.340;2023-07-29T01:54:42;2.60;;;1.97;;
485;SDS011;229;48.734;9.340;2023-07-29T01:57:09;3.13;;;1.83;;
485;SDS011;229;48.734;9.340;2023-07-29T01:59:38;3.20;;;2.00;;
485;SDS011;229;48.734;9.340;2023-07-29T02:02:05;5.10;;;2.30;;
485;SDS011;229;48.734;9.340;2023-07-29T02:04:32;3.07;;;2.20;;
485;SDS011;229;48.734;9.340;2023-07-29T02:07:00;5.00;;;1.97;;
485;SDS011;229;48.734;9.340;2023-07-29T02:09:27;5.80;;;2.17;;
485;SDS011;229;48.734;9.340;2023-07-29T02:11:55;6.93;;;2.83;;
485;SDS011;229;48.734;9.340;2023-07-29T02:14:23;7.95;;;2.28;;
485;SDS011;229;48.734;9.340;2023-07-29T02:16:51;5.37;;;2.07;;
485;SDS011;229;48.734;9.340;2023-07-29T02:19:18;4.10;;;2.30;;
485;SDS011;229;48.734;9.340;2023-07-29T02:21:45;6.90;;;2.10;;
485;SDS011;229;48.734;9.340;2023-07-29T02:24:13;4.40;;;2.07;;
485;SDS011;229;48.734;9.340;2023-07-29T02:29:07;3.80;;;1.70;;
485;SDS011;229;48.734;9.340;2023-07-29T02:31:34;7.23;;;2.20;;
485;SDS011;229;48.734;9.340;2023-07-29T02:34:04;4.07;;;2.07;;
485;SDS011;229;48.734;9.340;2023-07-29T02:36:31;3.03;;;1.80;;
485;SDS011;229;48.734;9.340;2023-07-29T02:38:58;3.20;;;2.10;;
485;SDS011;229;48.734;9.340;2023-07-29T02:41:25;7.87;;;2.50;;
485;SDS011;229;48.734;9.340;2023-07-29T02:43:52;4.23;;;2.10;;
485;SDS011;229;48.734;9.340;2023-07-29T02:46:20;9.80;;;2.23;;
485;SDS011;229;48.734;9.340;2023-07-29T02:48:47;9.00;;;2.70;;
485;SDS011;229;48.734;9.340;2023-07-29T02:51:15;9.73;;;2.30;;
485;SDS011;229;48.734;9.340;2023-07-29T02:53:42;2.30;;;1.60;;
485;SDS011;229;48.734;9.340;2023-07-29T02:56:10;5.97;;;1.70;;
485;SDS011;229;48.734;9.340;2023-07-29T02:58:37;7.70;;;2.00;;
485;SDS011;229;48.734;9.340;2023-07-29T03:01:04;5.47;;;2.03;;
485;SDS011;229;48.734;9.340;2023-07-29T03:03:32;2.57;;;1.90;;
485;SDS011;229;48.734;9.340;2023-07-29T03:05:59;5.93;;;1.80;;
485;SDS011;229;48.734;9.340;2023-07-29T03:08:28;3.17;;;1.88;;
485;SDS011;229;48.734;9.340;2023-07-29T03:10:56;3.83;;;1.90;;
485;SDS011;229;48.734;9.340;2023-07-29T03:13:23;2.90;;;2.10;;
485;SDS011;229;48.734;9.340;2023-07-29T03:15:50;6.30;;;1.97;;
485;SDS011;229;48.734;9.340;2023-07-29T03:18:17;2.70;;;2.05;;
485;SDS011;229;48.734;9.340;2023-07-29T03:20:45;8.95;;;1.75;;
485;SDS011;229;48.734;9.340;2023-07-29T03:23:12;3.57;;;2.00;;
485;SDS011;229;48.734;9.340;2023-07-29T03:25:40;6.13;;;2.22;;
485;SDS011;229;48.734;9.340;2023-07-29T03:28:07;9.07;;;2.63;;
485;SDS011;229;48.734;9.340;2023-07-29T03:30:35;2.80;;;2.60;;
485;SDS011;229;48.734;9.340;2023-07-29T03:33:02;7.17;;;2.13;;
485;SDS011;229;48.734;9.340;2023-07-29T03:35:29;4.63;;;2.15;;
485;SDS011;229;48.734;9.340;2023-07-29T03:37:57;4.93;;;1.63;;
485;SDS011;229;48.734;9.340;2023-07-29T03:40:24;4.93;;;1.83;;
485;SDS011;229;48.734;9.340;2023-07-29T03:42:52;6.68;;;2.35;;
485;SDS011;229;48.734;9.340;2023-07-29T03:45:20;8.10;;;2.53;;
485;SDS011;229;48.734;9.340;2023-07-29T03:47:47;5.90;;;2.63;;
485;SDS011;229;48.734;9.340;2023-07-29T03:50:14;3.97;;;2.47;;
485;SDS011;229;48.734;9.340;2023-07-29T03:52:41;5.05;;;3.38;;
485;SDS011;229;48.734;9.340;2023-07-29T03:55:08;4.00;;;2.40;;
485;SDS011;229;48.734;9.340;2023-07-29T03:57:35;4.73;;;3.00;;
485;SDS011;229;48.734;9.340;2023-07-29T04:00:05;7.63;;;2.30;;
485;SDS011;229;48.734;9.340;2023-07-29T04:02:32;2.45;;;1.70;;
485;SDS011;229;48.734;9.340;2023-07-29T04:05:02;8.30;;;1.90;;
485;SDS011;229;48.734;9.340;2023-07-29T04:07:29;6.03;;;2.73;;
485;SDS011;229;48.734;9.340;2023-07-29T04:09:57;3.35;;;1.95;;
485;SDS011;229;48.734;9.340;2023-07-29T04:12:24;5.80;;;2.80;;
485;SDS011;229;48.734;9.340;2023-07-29T04:14:51;3.07;;;1.93;;
485;SDS011;229;48.734;9.340;2023-07-29T04:17:20;3.38;;;2.13;;
485;SDS011;229;48.734;9.340;2023-07-29T04:19:47;4.40;;;2.55;;
485;SDS011;229;48.734;9.340;2023-07-29T04:22:15;6.47;;;2.53;;
485;SDS011;229;48.734;9.340;2023-07-29T04:24:42;5.97;;;2.10;;
485;SDS011;229;48.734;9.340;2023-07-29T04:27:10;6.55;;;2.28;;
485;SDS011;229;48.734;9.340;2023-07-29T04:29:37;10.33;;;2.73;;
485;SDS011;229;48.734;9.340;2023-07-29T04:32:04;8.77;;;2.50;;
485;SDS011;229;48.734;9.340;2023-07-29T04:34:33;3.17;;;2.20;;
485;SDS011;229;48.734;9.340;2023-07-29T04:37:00;6.00;;;2.27;;
485;SDS011;229;48.734;9.340;2023-07-29T04:39:27;7.57;;;3.40;;
485;SDS011;229;48.734;9.340;2023-07-29T04:41:55;6.05;;;3.45;;
485;SDS011;229;48.734;9.340;2023-07-29T04:44:23;9.10;;;3.40;;
485;SDS011;229;48.734;9.340;2023-07-29T04:46:50;7.30;;;3.40;;
485;SDS011;229;48.734;9.340;2023-07-29T04:49:17;5.10;;;3.17;;
485;SDS011;229;48.734;9.340;2023-07-29T04:51:45;9.77;;;4.40;;
485;SDS011;229;48.734;9.340;2023-07-29T04:54:13;7.17;;;3.77;;
485;SDS011;229;48.734;9.340;2023-07-29T04:56:40;7.63;;;3.90;;
485;SDS011;229;48.734;9.340;2023-07-29T04:59:07;7.40;;;3.63;;
485;SDS011;229;48.734;9.340;2023-07-29T05:01:34;7.00;;;3.47;;
485;SDS011;229;48.734;9.340;2023-07-29T05:04:01;9.20;;;3.73;;
485;SDS011;229;48.734;9.340;2023-07-29T05:06:28;8.60;;;4.17;;
485;SDS011;229;48.734;9.340;2023-07-29T05:08:58;9.07;;;3.80;;
485;SDS011;229;48.734;9.340;2023-07-29T05:11:25;8.85;;;3.50;;
485;SDS011;229;48.734;9.340;2023-07-29T05:13:52;8.30;;;3.23;;
485;SDS011;229;48.734;9.340;2023-07-29T05:16:19;4.73;;;3.23;;
485;SDS011;229;48.734;9.340;2023-07-29T05:18:46;5.97;;;3.10;;
485;SDS011;229;48.734;9.340;2023-07-29T05:21:13;11.63;;;3.97;;
485;SDS011;229;48.734;9.340;2023-07-29T05:23:41;5.33;;;3.17;;
485;SDS011;229;48.734;9.340;2023-07-29T05:26:09;9.10;;;3.60;;
485;SDS011;229;48.734;9.340;2023-07-29T05:28:36;6.90;;;3.42;;
485;SDS011;229;48.734;9.340;2023-07-29T05:31:03;8.17;;;3.40;;
485;SDS011;229;48.734;9.340;2023-07-29T05:33:31;4.40;;;3.10;;
485;SDS011;229;48.734;9.340;2023-07-29T05:35:58;9.10;;;4.17;;
485;SDS011;229;48.734;9.340;2023-07-29T05:38:26;13.73;;;4.77;;
485;SDS011;229;48.734;9.340;2023-07-29T05:40:53;7.53;;;4.70;;
485;SDS011;229;48.734;9.340;2023-07-29T05:43:21;7.93;;;3.97;;
485;SDS011;229;48.734;9.340;2023-07-29T05:45:48;9.30;;;4.20;;
485;SDS011;229;48.734;9.340;2023-07-29T05:48:16;9.07;;;4.63;;
485;SDS011;229;48.734;9.340;2023-07-29T05:50:43;6.50;;;4.40;;
485;SDS011;229;48.734;9.340;2023-07-29T05:53:10;9.13;;;4.17;;
485;SDS011;229;48.734;9.340;2023-07-29T05:55:37;7.93;;;3.20;;
485;SDS011;229;48.734;9.340;2023-07-29T05:58:04;7.57;;;3.50;;
485;SDS011;229;48.734;9.340;2023-07-29T06:00:33;7.53;;;3.57;;
485;SDS011;229;48.734;9.340;2023-07-29T06:03:00;7.10;;;3.40;;
485;SDS011;229;48.734;9.340;2023-07-29T06:05:28;4.50;;;3.13;;
485;SDS011;229;48.734;9.340;2023-07-29T06:07:55;5.37;;;3.70;;
485;SDS011;229;48.734;9.340;2023-07-29T06:10:22;7.33;;;3.17;;
485;SDS011;229;48.734;9.340;2023-07-29T06:12:49;6.60;;;3.60;;
485;SDS011;229;48.734;9.340;2023-07-29T06:15:17;4.93;;;2.90;;
485;SDS011;229;48.734;9.340;2023-07-29T06:17:48;7.47;;;3.80;;
485;SDS011;229;48.734;9.340;2023-07-29T06:20:15;4.77;;;3.40;;
485;SDS011;229;48.734;9.340;2023-07-29T06:22:42;9.77;;;3.27;;
485;SDS011;229;48.734;9.340;2023-07-29T06:25:09;6.93;;;3.20;;
485;SDS011;229;48.734;9.340;2023-07-29T06:27:37;5.20;;;3.07;;
485;SDS011;229;48.734;9.340;2023-07-29T06:30:05;5.10;;;2.80;;
485;SDS011;229;48.734;9.340;2023-07-29T06:32:32;5.20;;;3.00;;
485;SDS011;229;48.734;9.340;2023-07-29T06:35:01;3.17;;;2.50;;
485;SDS011;229;48.734;9.340;2023-07-29T06:37:28;3.57;;;2.13;;
485;SDS011;229;48.734;9.340;2023-07-29T06:39:55;7.47;;;2.50;;
485;SDS011;229;48.734;9.340;2023-07-29T06:42:22;4.83;;;2.57;;
485;SDS011;229;48.734;9.340;2023-07-29T06:44:49;3.27;;;2.10;;
485;SDS011;229;48.734;9.340;2023-07-29T06:47:17;5.57;;;2.40;;
485;SDS011;229;48.734;9.340;2023-07-29T06:49:45;4.50;;;2.10;;
485;SDS011;229;48.734;9.340;2023-07-29T06:52:14;6.10;;;2.70;;
485;SDS011;229;48.734;9.340;2023-07-29T06:54:41;4.57;;;2.70;;
485;SDS011;229;48.734;9.340;2023-07-29T06:57:08;4.03;;;2.70;;
485;SDS011;229;48.734;9.340;2023-07-29T06:59:35;5.07;;;2.30;;
485;SDS011;229;48.734;9.340;2023-07-29T07:02:03;4.13;;;2.50;;
485;SDS011;229;48.734;9.340;2023-07-29T07:04:30;3.70;;;2.37;;
485;SDS011;229;48.734;9.340;2023-07-29T07:06:57;5.33;;;2.63;;
485;SDS011;229;48.734;9.340;2023-07-29T07:09:26;5.87;;;2.80;;
485;SDS011;229;48.734;9.340;2023-07-29T07:11:53;7.60;;;2.87;;
485;SDS011;229;48.734;9.340;2023-07-29T07:14:20;5.77;;;3.43;;
485;SDS011;229;48.734;9.340;2023-07-29T07:16:47;5.30;;;3.20;;
485;SDS011;229;48.734;9.340;2023-07-29T07:19:15;4.13;;;2.80;;
485;SDS011;229;48.734;9.340;2023-07-29T07:21:42;4.90;;;2.73;;
485;SDS011;229;48.734;9.340;2023-07-29T07:24:09;4.60;;;2.80;;
485;SDS011;229;48.734;9.340;2023-07-29T07:26:38;6.63;;;3.23;;
485;SDS011;229;48.734;9.340;2023-07-29T07:29:05;14.90;;;2.70;;
485;SDS011;229;48.734;9.340;2023-07-29T07:31:32;9.37;;;2.80;;
485;SDS011;229;48.734;9.340;2023-07-29T07:34:00;5.20;;;2.77;;
485;SDS011;229;48.734;9.340;2023-07-29T07:36:28;6.70;;;2.97;;
485;SDS011;229;48.734;9.340;2023-07-29T07:38:56;13.00;;;3.63;;
485;SDS011;229;48.734;9.340;2023-07-29T07:41:23;4.30;;;2.30;;
485;SDS011;229;48.734;9.340;2023-07-29T07:43:52;5.23;;;1.87;;
485;SDS011;229;48.734;9.340;2023-07-29T07:46:19;4.10;;;2.10;;
485;SDS011;229;48.734;9.340;2023-07-29T07:48:46;6.87;;;2.10;;
485;SDS011;229;48.734;9.340;2023-07-29T07:51:13;3.50;;;1.83;;
485;SDS011;229;48.734;9.340;2023-07-29T07:53:40;1.97;;;1.20;;
485;SDS011;229;48.734;9.340;2023-07-29T07:56:08;4.03;;;1.20;;
485;SDS011;229;48.734;9.340;2023-07-29T07:58:35;3.07;;;1.60;;
485;SDS011;229;48.734;9.340;2023-07-29T08:01:04;1.43;;;1.17;;
485;SDS011;229;48.734;9.340;2023-07-29T08:03:31;10.10;;;1.90;;
485;SDS011;229;48.734;9.340;2023-07-29T08:05:59;3.27;;;1.57;;
485;SDS011;229;48.734;9.340;2023-07-29T08:08:26;4.73;;;1.40;;
485;SDS011;229;48.734;9.340;2023-07-29T08:10:54;2.30;;;1.50;;
485;SDS011;229;48.734;9.340;2023-07-29T08:13:21;5.40;;;1.77;;
485;SDS011;229;48.734;9.340;2023-07-29T08:15:49;2.70;;;1.60;;
485;SDS011;229;48.734;9.340;2023-07-29T08:18:18;3.17;;;1.50;;
485;SDS011;229;48.734;9.340;2023-07-29T08:20:52;4.83;;;1.40;;
485;SDS011;229;48.734;9.340;2023-07-29T08:23:20;2.53;;;1.63;;
485;SDS011;229;48.734;9.340;2023-07-29T08:25:50;6.57;;;1.87;;
485;SDS011;229;48.734;9.340;2023-07-29T08:28:18;2.87;;;1.67;;
485;SDS011;229;48.734;9.340;2023-07-29T08:30:45;5.00;;;2.30;;
485;SDS011;229;48.734;9.340;2023-07-29T08:33:12;3.23;;;1.67;;
485;SDS011;229;48.734;9.340;2023-07-29T08:35:41;5.70;;;2.40;;
485;SDS011;229;48.734;9.340;2023-07-29T08:38:08;5.63;;;1.87;;
485;SDS011;229;48.734;9.340;2023-07-29T08:40:35;3.27;;;2.10;;
485;SDS011;229;48.734;9.340;2023-07-29T08:43:04;3.30;;;2.17;;
485;SDS011;229;48.734;9.340;2023-07-29T08:45:32;4.07;;;2.23;;
485;SDS011;229;48.734;9.340;2023-07-29T08:48:02;6.00;;;2.30;;
485;SDS011;229;48.734;9.340;2023-07-29T08:50:29;3.97;;;2.07;;
485;SDS011;229;48.734;9.340;2023-07-29T08:52:59;4.10;;;2.30;;
485;SDS011;229;48.734;9.340;2023-07-29T08:55:28;6.53;;;2.60;;
485;SDS011;229;48.734;9.340;2023-07-29T08:57:56;3.53;;;2.13;;
485;SDS011;229;48.734;9.340;2023-07-29T09:00:24;3.40;;;2.50;;
485;SDS011;229;48.734;9.340;2023-07-29T09:02:52;4.63;;;2.40;;
485;SDS011;229;48.734;9.340;2023-07-29T09:05:20;4.50;;;2.70;;
485;SDS011;229;48.734;9.340;2023-07-29T09:07:48;8.03;;;2.20;;
485;SDS011;229;48.734;9.340;2023-07-29T09:10:19;4.80;;;2.17;;
485;SDS011;229;48.734;9.340;2023-07-29T09:12:48;8.40;;;2.63;;
485;SDS011;229;48.734;9.340;2023-07-29T09:15:25;6.23;;;2.10;;
485;SDS011;229;48.734;9.340;2023-07-29T09:17:53;3.53;;;2.17;;
485;SDS011;229;48.734;9.340;2023-07-29T09:20:23;5.23;;;2.40;;
485;SDS011;229;48.734;9.340;2023-07-29T09:22:50;5.53;;;2.03;;
485;SDS011;229;48.734;9.340;2023-07-29T09:25:23;3.47;;;1.90;;
485;SDS011;229;48.734;9.340;2023-07-29T09:27:50;4.53;;;2.70;;
485;SDS011;229;48.734;9.340;2023-07-29T09:30:17;4.60;;;2.50;;
485;SDS011;229;48.734;9.340;2023-07-29T09:32:45;3.70;;;2.23;;
485;SDS011;229;48.734;9.340;2023-07-29T09:35:12;3.50;;;2.17;;
485;SDS011;229;48.734;9.340;2023-07-29T09:37:39;16.10;;;2.60;;
485;SDS011;229;48.734;9.340;2023-07-29T09:40:07;7.10;;;2.30;;
485;SDS011;229;48.734;9.340;2023-07-29T09:42:41;2.87;;;2.27;;
485;SDS011;229;48.734;9.340;2023-07-29T09:45:19;3.90;;;2.37;;
485;SDS011;229;48.734;9.340;2023-07-29T09:47:46;4.60;;;2.27;;
485;SDS011;229;48.734;9.340;2023-07-29T09:50:13;3.00;;;2.33;;
485;SDS011;229;48.734;9.340;2023-07-29T09:52:41;3.10;;;2.40;;
485;SDS011;229;48.734;9.340;2023-07-29T09:55:09;3.17;;;1.83;;
485;SDS011;229;48.734;9.340;2023-07-29T09:57:36;2.90;;;2.03;;
485;SDS011;229;48.734;9.340;2023-07-29T10:00:07;2.40;;;1.93;;
485;SDS011;229;48.734;9.340;2023-07-29T10:02:36;6.50;;;2.20;;
485;SDS011;229;48.734;9.340;2023-07-29T10:05:04;3.57;;;1.97;;
485;SDS011;229;48.734;9.340;2023-07-29T10:07:32;3.57;;;2.23;;
485;SDS011;229;48.734;9.340;2023-07-29T10:10:01;2.97;;;2.07;;
485;SDS011;229;48.734;9.340;2023-07-29T10:12:29;5.80;;;1.97;;
485;SDS011;229;48.734;9.340;2023-07-29T10:14:58;2.63;;;1.80;;
485;SDS011;229;48.734;9.340;2023-07-29T10:17:28;2.97;;;2.20;;
485;SDS011;229;48.734;9.340;2023-07-29T10:19:56;2.90;;;2.40;;
485;SDS011;229;48.734;9.340;2023-07-29T10:22:24;6.73;;;2.07;;
485;SDS011;229;48.734;9.340;2023-07-29T10:24:52;2.73;;;1.90;;
485;SDS011;229;48.734;9.340;2023-07-29T10:27:20;4.90;;;2.33;;
485;SDS011;229;48.734;9.340;2023-07-29T10:29:50;7.43;;;2.60;;
485;SDS011;229;48.734;9.340;2023-07-29T10:32:19;3.00;;;1.90;;
485;SDS011;229;48.734;9.340;2023-07-29T10:34:50;3.50;;;2.33;;
485;SDS011;229;48.734;9.340;2023-07-29T10:37:17;4.30;;;2.60;;
485;SDS011;229;48.734;9.340;2023-07-29T10:39:51;3.70;;;2.00;;
485;SDS011;229;48.734;9.340;2023-07-29T10:42:19;4.50;;;2.63;;
485;SDS011;229;48.734;9.340;2023-07-29T10:44:46;3.37;;;2.60;;
485;SDS011;229;48.734;9.340;2023-07-29T10:47:15;5.57;;;2.60;;
485;SDS011;229;48.734;9.340;2023-07-29T10:49:43;3.70;;;2.70;;
485;SDS011;229;48.734;9.340;2023-07-29T10:52:13;3.87;;;2.57;;
485;SDS011;229;48.734;9.340;2023-07-29T10:54:42;4.47;;;2.20;;
485;SDS011;229;48.734;9.340;2023-07-29T10:57:12;3.70;;;2.40;;
485;SDS011;229;48.734;9.340;2023-07-29T10:59:40;4.17;;;2.40;;
485;SDS011;229;48.734;9.340;2023-07-29T11:02:15;3.20;;;2.70;;
485;SDS011;229;48.734;9.340;2023-07-29T11:04:47;2.60;;;2.33;;
485;SDS011;229;48.734;9.340;2023-07-29T11:07:20;3.23;;;2.60;;
485;SDS011;229;48.734;9.340;2023-07-29T11:09:56;3.73;;;2.73;;
485;SDS011;229;48.734;9.340;2023-07-29T11:12:36;2.83;;;2.30;;
485;SDS011;229;48.734;9.340;2023-07-29T11:15:04;5.10;;;2.33;;
485;SDS011;229;48.734;9.340;2023-07-29T11:17:32;4.80;;;2.47;;
485;SDS011;229;48.734;9.340;2023-07-29T11:20:00;3.57;;;2.07;;
485;SDS011;229;48.734;9.340;2023-07-29T11:22:29;7.27;;;2.10;;
485;SDS011;229;48.734;9.340;2023-07-29T11:24:57;2.80;;;2.03;;
485;SDS011;229;48.734;9.340;2023-07-29T11:27:24;2.57;;;2.10;;
485;SDS011;229;48.734;9.340;2023-07-29T11:29:56;2.50;;;2.07;;
485;SDS011;229;48.734;9.340;2023-07-29T11:32:23;4.50;;;2.13;;
485;SDS011;229;48.734;9.340;2023-07-29T11:34:51;3.27;;;2.27;;
485;SDS011;229;48.734;9.340;2023-07-29T11:37:18;2.27;;;1.80;;
485;SDS011;229;48.734;9.340;2023-07-29T11:39:48;4.23;;;2.70;;
485;SDS011;229;48.734;9.340;2023-07-29T11:42:16;3.50;;;2.70;;
485;SDS011;229;48.734;9.340;2023-07-29T11:44:43;2.90;;;2.50;;
485;SDS011;229;48.734;9.340;2023-07-29T11:47:11;3.50;;;2.33;;
485;SDS011;229;48.734;9.340;2023-07-29T11:49:39;3.60;;;2.57;;
485;SDS011;229;48.734;9.340;2023-07-29T11:52:07;3.30;;;2.40;;
485;SDS011;229;48.734;9.340;2023-07-29T11:54:34;3.43;;;2.03;;
485;SDS011;229;48.734;9.340;2023-07-29T11:57:03;3.50;;;2.07;;
485;SDS011;229;48.734;9.340;2023-07-29T11:59:31;3.90;;;2.30;;
485;SDS011;229;48.734;9.340;2023-07-29T12:02:00;4.80;;;2.80;;
485;SDS011;229;48.734;9.340;2023-07-29T12:04:27;4.00;;;2.17;;
485;SDS011;229;48.734;9.340;2023-07-29T12:06:55;4.50;;;2.60;;
485;SDS011;229;48.734;9.340;2023-07-29T12:09:23;2.53;;;2.20;;
485;SDS011;229;48.734;9.340;2023-07-29T12:11:52;2.60;;;2.33;;
485;SDS011;229;48.734;9.340;2023-07-29T12:14:20;2.63;;;2.27;;
485;SDS011;229;48.734;9.340;2023-07-29T12:16:48;3.00;;;2.40;;
485;SDS011;229;48.734;9.340;2023-07-29T12:19:17;3.93;;;2.57;;
485;SDS011;229;48.734;9.340;2023-07-29T12:21:44;5.43;;;2.60;;
485;SDS011;229;48.734;9.340;2023-07-29T12:24:12;3.30;;;2.60;;
485;SDS011;229;48.734;9.340;2023-07-29T12:26:39;5.37;;;2.70;;
485;SDS011;229;48.734;9.340;2023-07-29T12:29:13;3.60;;;2.50;;
485;SDS011;229;48.734;9.340;2023-07-29T12:31:42;3.03;;;2.90;;
485;SDS011;229;48.734;9.340;2023-07-29T12:34:09;4.97;;;3.60;;
485;SDS011;229;48.734;9.340;2023-07-29T12:36:43;4.03;;;3.03;;
485;SDS011;229;48.734;9.340;2023-07-29T12:39:20;6.63;;;2.90;;
485;SDS011;229;48.734;9.340;2023-07-29T12:41:48;3.40;;;2.63;;
485;SDS011;229;48.734;9.340;2023-07-29T12:44:15;3.47;;;2.87;;
485;SDS011;229;48.734;9.340;2023-07-29T12:46:44;3.10;;;2.90;;
485;SDS011;229;48.734;9.340;2023-07-29T12:49:19;5.17;;;2.80;;
485;SDS011;229;48.734;9.340;2023-07-29T12:51:47;6.13;;;2.90;;
485;SDS011;229;48.734;9.340;2023-07-29T12:54:14;2.87;;;2.73;;
485;SDS011;229;48.734;9.340;2023-07-29T12:56:41;3.10;;;2.70;;
485;SDS011;229;48.734;9.340;2023-07-29T12:59:09;3.77;;;2.60;;
485;SDS011;229;48.734;9.340;2023-07-29T13:01:36;3.67;;;3.10;;
485;SDS011;229;48.734;9.340;2023-07-29T13:04:03;5.40;;;3.00;;
485;SDS011;229;48.734;9.340;2023-07-29T13:06:31;4.07;;;2.73;;
485;SDS011;229;48.734;9.340;2023-07-29T13:08:59;3.57;;;2.83;;
485;SDS011;229;48.734;9.340;2023-07-29T13:11:26;3.27;;;2.87;;
485;SDS011;229;48.734;9.340;2023-07-29T13:13:53;3.00;;;2.87;;
485;SDS011;229;48.734;9.340;2023-07-29T13:16:20;3.70;;;2.67;;
485;SDS011;229;48.734;9.340;2023-07-29T13:18:47;4.10;;;3.10;;
485;SDS011;229;48.734;9.340;2023-07-29T13:21:14;2.90;;;2.70;;
485;SDS011;229;48.734;9.340;2023-07-29T13:23:43;5.53;;;3.07;;
485;SDS011;229;48.734;9.340;2023-07-29T13:26:10;3.73;;;3.03;;
485;SDS011;229;48.734;9.340;2023-07-29T13:28:37;4.17;;;2.87;;
485;SDS011;229;48.734;9.340;2023-07-29T13:31:04;4.30;;;3.30;;
485;SDS011;229;48.734;9.340;2023-07-29T13:33:32;3.53;;;3.00;;
485;SDS011;229;48.734;9.340;2023-07-29T13:35:59;5.90;;;3.03;;
485;SDS011;229;48.734;9.340;2023-07-29T13:38:27;3.20;;;3.10;;
485;SDS011;229;48.734;9.340;2023-07-29T13:40:56;3.33;;;2.70;;
485;SDS011;229;48.734;9.340;2023-07-29T13:43:23;3.33;;;2.90;;
485;SDS011;229;48.734;9.340;2023-07-29T13:45:50;4.27;;;3.00;;
485;SDS011;229;48.734;9.340;2023-07-29T13:48:17;3.10;;;2.90;;
485;SDS011;229;48.734;9.340;2023-07-29T13:50:45;3.63;;;2.90;;
485;SDS011;229;48.734;9.340;2023-07-29T13:53:12;3.90;;;3.10;;
485;SDS011;229;48.734;9.340;2023-07-29T13:55:39;2.83;;;2.70;;
485;SDS011;229;48.734;9.340;2023-07-29T13:58:08;3.73;;;2.80;;
485;SDS011;229;48.734;9.340;2023-07-29T14:00:35;4.30;;;3.10;;
485;SDS011;229;48.734;9.340;2023-07-29T14:03:02;4.40;;;2.80;;
485;SDS011;229;48.734;9.340;2023-07-29T14:05:29;2.83;;;2.70;;
485;SDS011;229;48.734;9.340;2023-07-29T14:07:57;3.80;;;3.30;;
485;SDS011;229;48.734;9.340;2023-07-29T14:10:24;2.57;;;2.47;;
485;SDS011;229;48.734;9.340;2023-07-29T14:12:51;3.70;;;3.50;;
485;SDS011;229;48.734;9.340;2023-07-29T14:15:20;4.00;;;3.10;;
485;SDS011;229;48.734;9.340;2023-07-29T14:17:48;4.00;;;3.20;;
485;SDS011;229;48.734;9.340;2023-07-29T14:20:15;4.03;;;2.80;;
485;SDS011;229;48.734;9.340;2023-07-29T14:22:43;3.33;;;2.97;;
485;SDS011;229;48.734;9.340;2023-07-29T14:25:10;3.10;;;2.73;;
485;SDS011;229;48.734;9.340;2023-07-29T14:27:37;3.47;;;3.27;;
485;SDS011;229;48.734;9.340;2023-07-29T14:30:05;4.60;;;2.83;;
485;SDS011;229;48.734;9.340;2023-07-29T14:32:34;3.57;;;3.10;;
485;SDS011;229;48.734;9.340;2023-07-29T14:35:02;4.30;;;3.10;;
485;SDS011;229;48.734;9.340;2023-07-29T14:37:29;5.17;;;3.40;;
485;SDS011;229;48.734;9.340;2023-07-29T14:39:57;3.90;;;2.97;;
485;SDS011;229;48.734;9.340;2023-07-29T14:42:24;5.70;;;3.00;;
485;SDS011;229;48.734;9.340;2023-07-29T14:44:51;4.80;;;2.93;;
485;SDS011;229;48.734;9.340;2023-07-29T14:47:18;3.27;;;2.60;;
485;SDS011;229;48.734;9.340;2023-07-29T14:49:47;2.80;;;2.57;;
485;SDS011;229;48.734;9.340;2023-07-29T14:52:14;4.00;;;3.37;;
485;SDS011;229;48.734;9.340;2023-07-29T14:54:41;7.00;;;3.37;;
485;SDS011;229;48.734;9.340;2023-07-29T14:57:09;4.63;;;3.77;;
485;SDS011;229;48.734;9.340;2023-07-29T14:59:36;4.30;;;3.10;;
485;SDS011;229;48.734;9.340;2023-07-29T15:02:04;3.67;;;3.20;;
485;SDS011;229;48.734;9.340;2023-07-29T15:04:31;3.27;;;3.07;;
485;SDS011;229;48.734;9.340;2023-07-29T15:07:00;2.77;;;2.60;;
485;SDS011;229;48.734;9.340;2023-07-29T15:09:27;4.80;;;3.20;;
485;SDS011;229;48.734;9.340;2023-07-29T15:11:54;4.10;;;2.90;;
485;SDS011;229;48.734;9.340;2023-07-29T15:14:21;3.47;;;3.00;;
485;SDS011;229;48.734;9.340;2023-07-29T15:16:48;4.77;;;3.33;;
485;SDS011;229;48.734;9.340;2023-07-29T15:19:15;3.37;;;3.10;;
485;SDS011;229;48.734;9.340;2023-07-29T15:21:43;9.73;;;3.40;;
485;SDS011;229;48.734;9.340;2023-07-29T15:24:11;3.60;;;3.27;;
485;SDS011;229;48.734;9.340;2023-07-29T15:26:38;3.20;;;3.00;;
485;SDS011;229;48.734;9.340;2023-07-29T15:29:06;4.57;;;3.83;;
485;SDS011;229;48.734;9.340;2023-07-29T15:31:33;4.60;;;3.67;;
485;SDS011;229;48.734;9.340;2023-07-29T15:34:00;3.73;;;2.80;;
485;SDS011;229;48.734;9.340;2023-07-29T15:36:28;3.60;;;3.17;;
485;SDS011;229;48.734;9.340;2023-07-29T15:38:55;3.83;;;3.10;;
485;SDS011;229;48.734;9.340;2023-07-29T15:41:23;4.67;;;3.10;;
485;SDS011;229;48.734;9.340;2023-07-29T15:43:51;4.23;;;3.67;;
485;SDS011;229;48.734;9.340;2023-07-29T15:46:19;6.07;;;2.93;;
485;SDS011;229;48.734;9.340;2023-07-29T15:48:47;7.00;;;3.40;;
485;SDS011;229;48.734;9.340;2023-07-29T15:51:14;5.17;;;3.20;;